Terminal Aerodrome Forecast
Issued by NWS

Home | Current Version | Previous Version | Text Only | Print | Product List | Glossary On
Versions: 1 2 3 4 5 6 7 8 9 10 11 12 13 14 15 16 17 18 19 20 21 22 23 24 25 26 27 28
000
FTUS41 KBUF 291739
TAFJHW
TAF
KJHW 291739Z 2918/3018 24007KT P6SM SCT035 BKN150
     FM300000 00000KT P6SM BKN070
     FM300400 VRB03KT P6SM VCSH OVC045
     FM300900 17004KT P6SM OVC050
     FM301300 20004KT P6SM BKN045
     FM301600 25006KT P6SM BKN035
      AMD LTD TO CLD VIS AND WIND=

USA.gov is the U.S. government's official web portal to all federal, state and local government web resources and services.